sensor_id;sensor_type;location;lat;lon;timestamp;P1;durP1;ratioP1;P2;durP2;ratioP2
22378;SDS011;11357;49.990;7.370;2022-08-11T00:00:01;171.43;;;161.25;;
22378;SDS011;11357;49.990;7.370;2022-08-11T00:02:43;190.57;;;179.88;;
22378;SDS011;11357;49.990;7.370;2022-08-11T00:05:15;114.80;;;108.22;;
22378;SDS011;11357;49.990;7.370;2022-08-11T00:07:48;278.45;;;262.05;;
22378;SDS011;11357;49.990;7.370;2022-08-11T00:10:18;255.90;;;240.80;;
22378;SDS011;11357;49.990;7.370;2022-08-11T00:12:50;221.95;;;208.70;;
22378;SDS011;11357;49.990;7.370;2022-08-11T00:15:24;278.48;;;262.30;;
22378;SDS011;11357;49.990;7.370;2022-08-11T00:17:59;262.27;;;246.65;;
22378;SDS011;11357;49.990;7.370;2022-08-11T00:20:30;273.70;;;257.90;;
22378;SDS011;11357;49.990;7.370;2022-08-11T00:23:05;219.43;;;206.60;;
22378;SDS011;11357;49.990;7.370;2022-08-11T00:25:37;271.85;;;255.15;;
22378;SDS011;11357;49.990;7.370;2022-08-11T00:28:28;224.55;;;211.68;;
22378;SDS011;11357;49.990;7.370;2022-08-11T00:30:57;240.20;;;226.57;;
22378;SDS011;11357;49.990;7.370;2022-08-11T00:33:33;396.42;;;371.33;;
22378;SDS011;11357;49.990;7.370;2022-08-11T00:36:05;280.10;;;263.83;;
22378;SDS011;11357;49.990;7.370;2022-08-11T00:38:33;380.30;;;356.73;;
22378;SDS011;11357;49.990;7.370;2022-08-11T00:55:02;264.35;;;248.40;;
22378;SDS011;11357;49.990;7.370;2022-08-11T01:00:22;266.08;;;250.63;;
22378;SDS011;11357;49.990;7.370;2022-08-11T01:03:16;347.83;;;326.63;;
22378;SDS011;11357;49.990;7.370;2022-08-11T02:04:22;753.75;;;687.50;;
22378;SDS011;11357;49.990;7.370;2022-08-11T02:09:52;889.65;;;768.17;;
22378;SDS011;11357;49.990;7.370;2022-08-11T02:12:49;892.05;;;757.22;;
22378;SDS011;11357;49.990;7.370;2022-08-11T02:20:47;1121.60;;;816.58;;
22378;SDS011;11357;49.990;7.370;2022-08-11T02:23:48;1892.50;;;908.05;;
22378;SDS011;11357;49.990;7.370;2022-08-11T02:26:21;956.35;;;815.25;;
22378;SDS011;11357;49.990;7.370;2022-08-11T02:31:28;1443.68;;;854.63;;
22378;SDS011;11357;49.990;7.370;2022-08-11T02:34:27;1676.32;;;864.28;;
22378;SDS011;11357;49.990;7.370;2022-08-11T02:37:11;1652.28;;;859.90;;
22378;SDS011;11357;49.990;7.370;2022-08-11T02:52:02;1346.68;;;872.03;;
22378;SDS011;11357;49.990;7.370;2022-08-11T02:54:42;1511.78;;;875.20;;
22378;SDS011;11357;49.990;7.370;2022-08-11T02:57:20;1606.00;;;933.85;;
22378;SDS011;11357;49.990;7.370;2022-08-11T04:16:46;1999.90;;;768.58;;
22378;SDS011;11357;49.990;7.370;2022-08-11T04:20:27;1999.90;;;999.90;;
22378;SDS011;11357;49.990;7.370;2022-08-11T04:34:11;1999.90;;;999.90;;
22378;SDS011;11357;49.990;7.370;2022-08-11T05:14:53;907.78;;;787.90;;
22378;SDS011;11357;49.990;7.370;2022-08-11T05:21:09;646.08;;;596.08;;
22378;SDS011;11357;49.990;7.370;2022-08-11T05:23:56;560.90;;;521.45;;
22378;SDS011;11357;49.990;7.370;2022-08-11T05:26:47;593.97;;;550.75;;
22378;SDS011;11357;49.990;7.370;2022-08-11T05:32:20;393.15;;;369.60;;
22378;SDS011;11357;49.990;7.370;2022-08-11T05:35:05;331.67;;;312.25;;
22378;SDS011;11357;49.990;7.370;2022-08-11T05:37:33;279.95;;;263.67;;
22378;SDS011;11357;49.990;7.370;2022-08-11T05:40:25;224.02;;;211.50;;
22378;SDS011;11357;49.990;7.370;2022-08-11T05:43:11;144.27;;;136.43;;
22378;SDS011;11357;49.990;7.370;2022-08-11T05:46:00;92.32;;;87.10;;
22378;SDS011;11357;49.990;7.370;2022-08-11T05:48:47;61.50;;;58.15;;
22378;SDS011;11357;49.990;7.370;2022-08-11T05:51:40;76.90;;;72.95;;
22378;SDS011;11357;49.990;7.370;2022-08-11T05:54:25;47.97;;;45.38;;
22378;SDS011;11357;49.990;7.370;2022-08-11T05:57:18;45.65;;;42.80;;
22378;SDS011;11357;49.990;7.370;2022-08-11T05:59:46;26.80;;;24.83;;
22378;SDS011;11357;49.990;7.370;2022-08-11T06:02:13;27.92;;;26.05;;
22378;SDS011;11357;49.990;7.370;2022-08-11T06:04:40;32.65;;;30.58;;
22378;SDS011;11357;49.990;7.370;2022-08-11T06:07:10;25.48;;;23.85;;
22378;SDS011;11357;49.990;7.370;2022-08-11T06:09:38;20.75;;;19.50;;
22378;SDS011;11357;49.990;7.370;2022-08-11T06:12:25;13.77;;;10.65;;
22378;SDS011;11357;49.990;7.370;2022-08-11T06:14:57;9.02;;;8.23;;
22378;SDS011;11357;49.990;7.370;2022-08-11T06:17:27;8.98;;;6.93;;
22378;SDS011;11357;49.990;7.370;2022-08-11T06:20:02;7.50;;;6.97;;
22378;SDS011;11357;49.990;7.370;2022-08-11T06:22:29;5.03;;;4.57;;
22378;SDS011;11357;49.990;7.370;2022-08-11T06:24:57;7.45;;;6.75;;
22378;SDS011;11357;49.990;7.370;2022-08-11T06:27:29;9.30;;;8.13;;
22378;SDS011;11357;49.990;7.370;2022-08-11T06:29:57;9.90;;;4.00;;
22378;SDS011;11357;49.990;7.370;2022-08-11T06:32:25;7.18;;;4.57;;
22378;SDS011;11357;49.990;7.370;2022-08-11T06:40:32;8.70;;;3.35;;
22378;SDS011;11357;49.990;7.370;2022-08-11T06:43:03;3.58;;;2.72;;
22378;SDS011;11357;49.990;7.370;2022-08-11T06:48:22;4.93;;;2.50;;
22378;SDS011;11357;49.990;7.370;2022-08-11T06:50:54;5.93;;;2.42;;
22378;SDS011;11357;49.990;7.370;2022-08-11T06:53:46;7.72;;;2.58;;
22378;SDS011;11357;49.990;7.370;2022-08-11T06:56:15;3.60;;;2.25;;
22378;SDS011;11357;49.990;7.370;2022-08-11T06:59:10;9.40;;;2.00;;
22378;SDS011;11357;49.990;7.370;2022-08-11T07:04:43;5.10;;;2.17;;
22378;SDS011;11357;49.990;7.370;2022-08-11T07:13:35;5.75;;;2.60;;
22378;SDS011;11357;49.990;7.370;2022-08-11T07:16:26;5.85;;;2.50;;
22378;SDS011;11357;49.990;7.370;2022-08-11T07:19:03;7.88;;;2.55;;
22378;SDS011;11357;49.990;7.370;2022-08-11T07:21:49;6.45;;;2.20;;
22378;SDS011;11357;49.990;7.370;2022-08-11T07:24:45;5.57;;;2.30;;
22378;SDS011;11357;49.990;7.370;2022-08-11T07:27:43;3.08;;;1.90;;
22378;SDS011;11357;49.990;7.370;2022-08-11T07:30:33;3.50;;;2.10;;
22378;SDS011;11357;49.990;7.370;2022-08-11T07:33:04;6.93;;;2.92;;
22378;SDS011;11357;49.990;7.370;2022-08-11T07:35:50;7.05;;;2.30;;
22378;SDS011;11357;49.990;7.370;2022-08-11T07:38:24;4.10;;;2.15;;
22378;SDS011;11357;49.990;7.370;2022-08-11T07:41:08;9.50;;;2.42;;
22378;SDS011;11357;49.990;7.370;2022-08-11T07:43:41;4.18;;;2.13;;
22378;SDS011;11357;49.990;7.370;2022-08-11T07:46:13;3.30;;;2.45;;
22378;SDS011;11357;49.990;7.370;2022-08-11T07:48:58;9.35;;;2.38;;
22378;SDS011;11357;49.990;7.370;2022-08-11T07:51:45;7.97;;;2.15;;
22378;SDS011;11357;49.990;7.370;2022-08-11T07:54:31;4.70;;;2.45;;
22378;SDS011;11357;49.990;7.370;2022-08-11T07:56:57;4.03;;;1.88;;
22378;SDS011;11357;49.990;7.370;2022-08-11T07:59:23;4.63;;;2.10;;
22378;SDS011;11357;49.990;7.370;2022-08-11T08:02:09;2.88;;;2.03;;
22378;SDS011;11357;49.990;7.370;2022-08-11T08:04:54;5.68;;;1.88;;
22378;SDS011;11357;49.990;7.370;2022-08-11T08:07:40;4.30;;;2.03;;
22378;SDS011;11357;49.990;7.370;2022-08-11T08:10:25;3.85;;;2.30;;
22378;SDS011;11357;49.990;7.370;2022-08-11T08:13:09;2.17;;;1.83;;
22378;SDS011;11357;49.990;7.370;2022-08-11T08:15:53;7.25;;;2.28;;
22378;SDS011;11357;49.990;7.370;2022-08-11T08:18:38;3.67;;;2.13;;
22378;SDS011;11357;49.990;7.370;2022-08-11T08:21:05;3.70;;;1.73;;
22378;SDS011;11357;49.990;7.370;2022-08-11T08:23:39;2.03;;;1.55;;
22378;SDS011;11357;49.990;7.370;2022-08-11T08:26:11;5.65;;;1.88;;
22378;SDS011;11357;49.990;7.370;2022-08-11T08:29:05;4.30;;;1.88;;
22378;SDS011;11357;49.990;7.370;2022-08-11T08:31:50;3.25;;;1.60;;
22378;SDS011;11357;49.990;7.370;2022-08-11T08:34:17;6.90;;;2.10;;
22378;SDS011;11357;49.990;7.370;2022-08-11T08:36:44;7.85;;;2.00;;
22378;SDS011;11357;49.990;7.370;2022-08-11T08:39:11;9.32;;;1.83;;
22378;SDS011;11357;49.990;7.370;2022-08-11T08:41:38;8.88;;;1.98;;
22378;SDS011;11357;49.990;7.370;2022-08-11T08:44:07;7.22;;;1.85;;
22378;SDS011;11357;49.990;7.370;2022-08-11T08:47:17;3.00;;;1.70;;
22378;SDS011;11357;49.990;7.370;2022-08-11T08:49:26;2.75;;;1.60;;
22378;SDS011;11357;49.990;7.370;2022-08-11T08:51:57;2.90;;;1.95;;
22378;SDS011;11357;49.990;7.370;2022-08-11T08:54:37;5.40;;;1.95;;
22378;SDS011;11357;49.990;7.370;2022-08-11T08:57:06;2.67;;;1.80;;
22378;SDS011;11357;49.990;7.370;2022-08-11T08:59:35;4.65;;;1.75;;
22378;SDS011;11357;49.990;7.370;2022-08-11T09:02:05;5.47;;;1.98;;
22378;SDS011;11357;49.990;7.370;2022-08-11T09:04:32;3.85;;;1.70;;
22378;SDS011;11357;49.990;7.370;2022-08-11T09:06:59;3.85;;;1.65;;
22378;SDS011;11357;49.990;7.370;2022-08-11T09:09:32;5.70;;;1.90;;
22378;SDS011;11357;49.990;7.370;2022-08-11T09:11:58;3.13;;;1.90;;
22378;SDS011;11357;49.990;7.370;2022-08-11T09:14:25;4.13;;;1.73;;
22378;SDS011;11357;49.990;7.370;2022-08-11T09:17:16;3.70;;;1.77;;
22378;SDS011;11357;49.990;7.370;2022-08-11T09:19:45;2.22;;;1.73;;
22378;SDS011;11357;49.990;7.370;2022-08-11T09:22:11;4.05;;;1.85;;
22378;SDS011;11357;49.990;7.370;2022-08-11T09:25:00;4.80;;;1.80;;
22378;SDS011;11357;49.990;7.370;2022-08-11T09:27:45;5.68;;;1.98;;
22378;SDS011;11357;49.990;7.370;2022-08-11T09:30:11;2.75;;;1.98;;
22378;SDS011;11357;49.990;7.370;2022-08-11T09:32:37;4.68;;;2.10;;
22378;SDS011;11357;49.990;7.370;2022-08-11T09:35:04;3.85;;;1.90;;
22378;SDS011;11357;49.990;7.370;2022-08-11T09:37:32;4.45;;;1.50;;
22378;SDS011;11357;49.990;7.370;2022-08-11T09:40:17;3.47;;;1.92;;
22378;SDS011;11357;49.990;7.370;2022-08-11T09:43:04;7.63;;;2.22;;
22378;SDS011;11357;49.990;7.370;2022-08-11T09:45:52;7.05;;;1.80;;
22378;SDS011;11357;49.990;7.370;2022-08-11T09:48:22;5.07;;;1.90;;
22378;SDS011;11357;49.990;7.370;2022-08-11T09:50:51;2.70;;;1.70;;
22378;SDS011;11357;49.990;7.370;2022-08-11T09:53:19;3.35;;;1.65;;
22378;SDS011;11357;49.990;7.370;2022-08-11T09:55:46;3.75;;;2.15;;
22378;SDS011;11357;49.990;7.370;2022-08-11T09:58:14;3.60;;;1.95;;
22378;SDS011;11357;49.990;7.370;2022-08-11T10:00:42;7.00;;;1.90;;
22378;SDS011;11357;49.990;7.370;2022-08-11T10:03:14;4.05;;;1.77;;
22378;SDS011;11357;49.990;7.370;2022-08-11T10:05:46;6.88;;;2.03;;
22378;SDS011;11357;49.990;7.370;2022-08-11T10:08:31;4.22;;;1.42;;
22378;SDS011;11357;49.990;7.370;2022-08-11T10:11:00;8.07;;;1.63;;
22378;SDS011;11357;49.990;7.370;2022-08-11T10:13:30;2.63;;;1.58;;
22378;SDS011;11357;49.990;7.370;2022-08-11T10:16:21;6.78;;;1.63;;
22378;SDS011;11357;49.990;7.370;2022-08-11T10:18:52;3.88;;;1.85;;
22378;SDS011;11357;49.990;7.370;2022-08-11T10:21:31;2.78;;;1.83;;
22378;SDS011;11357;49.990;7.370;2022-08-11T10:24:00;5.28;;;1.80;;
22378;SDS011;11357;49.990;7.370;2022-08-11T10:26:47;4.53;;;1.83;;
22378;SDS011;11357;49.990;7.370;2022-08-11T10:29:35;3.40;;;1.80;;
22378;SDS011;11357;49.990;7.370;2022-08-11T10:32:25;2.67;;;1.60;;
22378;SDS011;11357;49.990;7.370;2022-08-11T10:35:11;6.07;;;1.67;;
22378;SDS011;11357;49.990;7.370;2022-08-11T10:37:38;3.90;;;1.63;;
22378;SDS011;11357;49.990;7.370;2022-08-11T10:40:07;4.82;;;1.65;;
22378;SDS011;11357;49.990;7.370;2022-08-11T10:42:36;4.10;;;1.67;;
22378;SDS011;11357;49.990;7.370;2022-08-11T10:45:21;7.07;;;1.90;;
22378;SDS011;11357;49.990;7.370;2022-08-11T10:48:07;7.85;;;1.90;;
22378;SDS011;11357;49.990;7.370;2022-08-11T10:50:34;2.08;;;1.40;;
22378;SDS011;11357;49.990;7.370;2022-08-11T10:53:20;3.20;;;1.63;;
22378;SDS011;11357;49.990;7.370;2022-08-11T10:56:05;3.35;;;1.67;;
22378;SDS011;11357;49.990;7.370;2022-08-11T10:58:51;3.28;;;1.50;;
22378;SDS011;11357;49.990;7.370;2022-08-11T11:01:25;3.65;;;1.70;;
22378;SDS011;11357;49.990;7.370;2022-08-11T11:04:03;9.32;;;1.65;;
22378;SDS011;11357;49.990;7.370;2022-08-11T11:09:15;4.75;;;1.80;;
22378;SDS011;11357;49.990;7.370;2022-08-11T11:11:47;2.35;;;1.70;;
22378;SDS011;11357;49.990;7.370;2022-08-11T11:14:52;4.60;;;1.90;;
22378;SDS011;11357;49.990;7.370;2022-08-11T11:17:39;2.72;;;1.95;;
22378;SDS011;11357;49.990;7.370;2022-08-11T11:23:04;6.05;;;1.63;;
22378;SDS011;11357;49.990;7.370;2022-08-11T11:25:45;5.85;;;2.00;;
22378;SDS011;11357;49.990;7.370;2022-08-11T11:28:42;6.72;;;2.00;;
22378;SDS011;11357;49.990;7.370;2022-08-11T11:34:14;5.65;;;1.95;;
22378;SDS011;11357;49.990;7.370;2022-08-11T11:36:59;6.72;;;2.10;;
22378;SDS011;11357;49.990;7.370;2022-08-11T11:39:27;4.88;;;1.90;;
22378;SDS011;11357;49.990;7.370;2022-08-11T11:41:56;5.13;;;1.70;;
22378;SDS011;11357;49.990;7.370;2022-08-11T11:44:24;2.83;;;1.50;;
22378;SDS011;11357;49.990;7.370;2022-08-11T11:46:51;2.45;;;1.80;;
22378;SDS011;11357;49.990;7.370;2022-08-11T11:49:18;5.65;;;1.85;;
22378;SDS011;11357;49.990;7.370;2022-08-11T11:51:48;4.40;;;1.77;;
22378;SDS011;11357;49.990;7.370;2022-08-11T11:54:16;4.13;;;1.80;;
22378;SDS011;11357;49.990;7.370;2022-08-11T11:56:47;3.70;;;1.75;;
22378;SDS011;11357;49.990;7.370;2022-08-11T11:59:17;3.55;;;1.73;;
22378;SDS011;11357;49.990;7.370;2022-08-11T12:02:07;2.00;;;1.80;;
22378;SDS011;11357;49.990;7.370;2022-08-11T12:04:41;5.70;;;1.70;;
22378;SDS011;11357;49.990;7.370;2022-08-11T12:07:09;2.97;;;1.80;;
22378;SDS011;11357;49.990;7.370;2022-08-11T12:09:55;7.72;;;1.70;;
22378;SDS011;11357;49.990;7.370;2022-08-11T12:12:22;4.43;;;1.88;;
22378;SDS011;11357;49.990;7.370;2022-08-11T12:15:08;4.05;;;1.77;;
22378;SDS011;11357;49.990;7.370;2022-08-11T12:17:34;9.20;;;1.92;;
22378;SDS011;11357;49.990;7.370;2022-08-11T12:20:01;2.17;;;1.65;;
22378;SDS011;11357;49.990;7.370;2022-08-11T12:22:28;4.70;;;1.90;;
22378;SDS011;11357;49.990;7.370;2022-08-11T12:25:13;4.47;;;1.38;;
22378;SDS011;11357;49.990;7.370;2022-08-11T12:27:57;4.68;;;1.70;;
22378;SDS011;11357;49.990;7.370;2022-08-11T12:30:23;9.48;;;1.85;;
22378;SDS011;11357;49.990;7.370;2022-08-11T12:32:49;2.70;;;1.88;;
22378;SDS011;11357;49.990;7.370;2022-08-11T12:35:16;3.17;;;2.08;;
22378;SDS011;11357;49.990;7.370;2022-08-11T12:37:43;6.82;;;1.92;;
22378;SDS011;11357;49.990;7.370;2022-08-11T12:40:13;6.57;;;1.90;;
22378;SDS011;11357;49.990;7.370;2022-08-11T12:43:00;5.38;;;1.92;;
22378;SDS011;11357;49.990;7.370;2022-08-11T12:45:46;10.95;;;2.25;;
22378;SDS011;11357;49.990;7.370;2022-08-11T12:48:18;4.85;;;1.77;;
22378;SDS011;11357;49.990;7.370;2022-08-11T12:53:58;7.32;;;2.13;;
22378;SDS011;11357;49.990;7.370;2022-08-11T12:56:49;6.97;;;4.32;;
22378;SDS011;11357;49.990;7.370;2022-08-11T12:59:38;5.65;;;2.00;;
22378;SDS011;11357;49.990;7.370;2022-08-11T13:02:23;6.82;;;2.10;;
22378;SDS011;11357;49.990;7.370;2022-08-11T13:05:10;8.63;;;2.20;;
22378;SDS011;11357;49.990;7.370;2022-08-11T13:07:39;10.50;;;2.53;;
22378;SDS011;11357;49.990;7.370;2022-08-11T13:10:10;3.97;;;1.90;;
22378;SDS011;11357;49.990;7.370;2022-08-11T13:12:39;2.47;;;2.28;;
22378;SDS011;11357;49.990;7.370;2022-08-11T13:15:16;5.18;;;2.03;;
22378;SDS011;11357;49.990;7.370;2022-08-11T13:17:45;3.40;;;1.90;;
22378;SDS011;11357;49.990;7.370;2022-08-11T13:20:13;5.03;;;2.10;;
22378;SDS011;11357;49.990;7.370;2022-08-11T13:22:44;2.33;;;2.10;;
22378;SDS011;11357;49.990;7.370;2022-08-11T13:25:14;12.75;;;2.20;;
22378;SDS011;11357;49.990;7.370;2022-08-11T13:27:42;5.03;;;2.03;;
22378;SDS011;11357;49.990;7.370;2022-08-11T13:30:10;5.63;;;1.95;;
22378;SDS011;11357;49.990;7.370;2022-08-11T13:32:58;6.85;;;2.30;;
22378;SDS011;11357;49.990;7.370;2022-08-11T13:35:25;4.32;;;1.90;;
22378;SDS011;11357;49.990;7.370;2022-08-11T13:37:52;5.53;;;2.10;;
22378;SDS011;11357;49.990;7.370;2022-08-11T13:40:20;4.80;;;2.10;;
22378;SDS011;11357;49.990;7.370;2022-08-11T13:42:48;2.58;;;1.80;;
22378;SDS011;11357;49.990;7.370;2022-08-11T13:45:15;4.57;;;1.90;;
22378;SDS011;11357;49.990;7.370;2022-08-11T13:47:42;3.13;;;1.77;;
22378;SDS011;11357;49.990;7.370;2022-08-11T13:50:09;4.88;;;1.98;;
22378;SDS011;11357;49.990;7.370;2022-08-11T13:52:37;7.57;;;2.30;;
22378;SDS011;11357;49.990;7.370;2022-08-11T13:55:04;4.63;;;2.65;;
22378;SDS011;11357;49.990;7.370;2022-08-11T13:57:32;3.92;;;2.10;;
22378;SDS011;11357;49.990;7.370;2022-08-11T13:59:59;4.35;;;2.33;;
22378;SDS011;11357;49.990;7.370;2022-08-11T14:02:39;5.55;;;2.00;;
22378;SDS011;11357;49.990;7.370;2022-08-11T14:05:09;7.13;;;2.40;;
22378;SDS011;11357;49.990;7.370;2022-08-11T14:07:41;5.57;;;2.20;;
22378;SDS011;11357;49.990;7.370;2022-08-11T14:10:23;5.68;;;2.00;;
22378;SDS011;11357;49.990;7.370;2022-08-11T14:12:55;5.57;;;2.05;;
22378;SDS011;11357;49.990;7.370;2022-08-11T14:15:43;5.40;;;2.00;;
22378;SDS011;11357;49.990;7.370;2022-08-11T14:18:20;3.45;;;1.92;;
22378;SDS011;11357;49.990;7.370;2022-08-11T14:20:51;4.68;;;1.77;;
22378;SDS011;11357;49.990;7.370;2022-08-11T14:23:39;3.67;;;1.70;;
22378;SDS011;11357;49.990;7.370;2022-08-11T14:26:07;9.18;;;2.22;;
22378;SDS011;11357;49.990;7.370;2022-08-11T14:29:06;3.85;;;1.88;;
22378;SDS011;11357;49.990;7.370;2022-08-11T14:31:33;4.75;;;1.90;;
22378;SDS011;11357;49.990;7.370;2022-08-11T14:34:02;55.55;;;6.70;;
22378;SDS011;11357;49.990;7.370;2022-08-11T14:36:51;22.83;;;3.47;;
22378;SDS011;11357;49.990;7.370;2022-08-11T14:39:27;10.50;;;2.63;;
22378;SDS011;11357;49.990;7.370;2022-08-11T14:41:56;11.10;;;2.50;;
22378;SDS011;11357;49.990;7.370;2022-08-11T14:44:47;3.33;;;2.40;;
22378;SDS011;11357;49.990;7.370;2022-08-11T14:47:34;5.00;;;2.20;;
22378;SDS011;11357;49.990;7.370;2022-08-11T14:50:01;4.25;;;2.38;;
22378;SDS011;11357;49.990;7.370;2022-08-11T14:52:30;10.50;;;2.35;;
22378;SDS011;11357;49.990;7.370;2022-08-11T14:54:59;3.17;;;1.88;;
22378;SDS011;11357;49.990;7.370;2022-08-11T14:57:44;7.47;;;2.20;;
22378;SDS011;11357;49.990;7.370;2022-08-11T15:00:12;6.38;;;2.33;;
22378;SDS011;11357;49.990;7.370;2022-08-11T15:02:41;6.07;;;2.13;;
22378;SDS011;11357;49.990;7.370;2022-08-11T15:05:26;2.83;;;2.05;;
22378;SDS011;11357;49.990;7.370;2022-08-11T15:07:52;7.88;;;2.30;;
22378;SDS011;11357;49.990;7.370;2022-08-11T15:10:19;4.45;;;2.08;;
22378;SDS011;11357;49.990;7.370;2022-08-11T15:12:46;16.00;;;2.72;;
22378;SDS011;11357;49.990;7.370;2022-08-11T15:15:13;10.95;;;2.13;;
22378;SDS011;11357;49.990;7.370;2022-08-11T15:18:00;5.07;;;2.08;;
22378;SDS011;11357;49.990;7.370;2022-08-11T15:20:28;10.98;;;2.45;;
22378;SDS011;11357;49.990;7.370;2022-08-11T15:23:13;8.20;;;2.25;;
22378;SDS011;11357;49.990;7.370;2022-08-11T15:25:59;6.10;;;2.25;;
22378;SDS011;11357;49.990;7.370;2022-08-11T15:28:28;5.88;;;2.10;;
22378;SDS011;11357;49.990;7.370;2022-08-11T15:31:16;5.65;;;2.85;;
22378;SDS011;11357;49.990;7.370;2022-08-11T15:34:06;3.80;;;2.00;;
22378;SDS011;11357;49.990;7.370;2022-08-11T15:36:57;7.18;;;1.98;;
22378;SDS011;11357;49.990;7.370;2022-08-11T15:42:29;8.77;;;2.42;;
22378;SDS011;11357;49.990;7.370;2022-08-11T15:45:16;9.23;;;2.58;;
22378;SDS011;11357;49.990;7.370;2022-08-11T15:48:08;11.00;;;3.42;;
22378;SDS011;11357;49.990;7.370;2022-08-11T15:50:39;5.68;;;2.30;;
22378;SDS011;11357;49.990;7.370;2022-08-11T15:55:53;5.80;;;2.00;;
22378;SDS011;11357;49.990;7.370;2022-08-11T15:58:20;6.60;;;2.38;;
22378;SDS011;11357;49.990;7.370;2022-08-11T16:01:08;2.85;;;2.10;;
22378;SDS011;11357;49.990;7.370;2022-08-11T16:04:17;5.75;;;2.20;;
22378;SDS011;11357;49.990;7.370;2022-08-11T16:12:20;4.68;;;2.60;;
22378;SDS011;11357;49.990;7.370;2022-08-11T16:14:50;3.60;;;2.08;;
22378;SDS011;11357;49.990;7.370;2022-08-11T16:17:43;10.70;;;1.90;;
22378;SDS011;11357;49.990;7.370;2022-08-11T16:20:11;6.35;;;2.25;;
22378;SDS011;11357;49.990;7.370;2022-08-11T16:22:38;2.53;;;2.10;;
22378;SDS011;11357;49.990;7.370;2022-08-11T16:25:09;6.07;;;2.17;;
22378;SDS011;11357;49.990;7.370;2022-08-11T16:27:44;4.97;;;2.33;;
22378;SDS011;11357;49.990;7.370;2022-08-11T16:30:13;8.32;;;2.40;;
22378;SDS011;11357;49.990;7.370;2022-08-11T16:32:40;4.13;;;2.03;;
22378;SDS011;11357;49.990;7.370;2022-08-11T16:35:16;5.78;;;2.25;;
22378;SDS011;11357;49.990;7.370;2022-08-11T16:38:03;6.30;;;2.40;;
22378;SDS011;11357;49.990;7.370;2022-08-11T16:40:50;4.60;;;2.22;;
22378;SDS011;11357;49.990;7.370;2022-08-11T16:43:18;3.60;;;2.30;;
22378;SDS011;11357;49.990;7.370;2022-08-11T16:46:06;11.75;;;2.30;;
22378;SDS011;11357;49.990;7.370;2022-08-11T16:48:51;4.65;;;2.20;;
22378;SDS011;11357;49.990;7.370;2022-08-11T16:51:18;2.88;;;1.92;;
22378;SDS011;11357;49.990;7.370;2022-08-11T16:53:45;4.60;;;1.88;;
22378;SDS011;11357;49.990;7.370;2022-08-11T16:56:13;3.65;;;2.10;;
22378;SDS011;11357;49.990;7.370;2022-08-11T16:58:45;13.48;;;2.80;;
22378;SDS011;11357;49.990;7.370;2022-08-11T17:01:39;6.53;;;2.33;;
22378;SDS011;11357;49.990;7.370;2022-08-11T17:04:23;4.93;;;2.28;;
22378;SDS011;11357;49.990;7.370;2022-08-11T17:07:10;6.45;;;2.15;;
22378;SDS011;11357;49.990;7.370;2022-08-11T17:10:06;3.25;;;2.20;;
22378;SDS011;11357;49.990;7.370;2022-08-11T17:12:58;6.13;;;2.17;;
22378;SDS011;11357;49.990;7.370;2022-08-11T17:15:36;8.25;;;2.53;;
22378;SDS011;11357;49.990;7.370;2022-08-11T17:18:24;3.55;;;2.25;;
22378;SDS011;11357;49.990;7.370;2022-08-11T17:21:06;6.70;;;1.98;;
22378;SDS011;11357;49.990;7.370;2022-08-11T17:23:33;5.93;;;2.30;;
22378;SDS011;11357;49.990;7.370;2022-08-11T17:26:14;3.88;;;2.20;;
22378;SDS011;11357;49.990;7.370;2022-08-11T17:28:47;4.15;;;2.10;;
22378;SDS011;11357;49.990;7.370;2022-08-11T17:31:16;6.78;;;2.35;;
22378;SDS011;11357;49.990;7.370;2022-08-11T17:34:03;7.28;;;2.28;;
22378;SDS011;11357;49.990;7.370;2022-08-11T17:36:51;5.40;;;2.30;;
22378;SDS011;11357;49.990;7.370;2022-08-11T17:39:18;3.47;;;2.40;;
22378;SDS011;11357;49.990;7.370;2022-08-11T17:41:47;4.43;;;2.17;;
22378;SDS011;11357;49.990;7.370;2022-08-11T17:44:34;6.35;;;2.58;;
22378;SDS011;11357;49.990;7.370;2022-08-11T17:47:20;4.90;;;2.50;;
22378;SDS011;11357;49.990;7.370;2022-08-11T17:50:05;4.97;;;2.17;;
22378;SDS011;11357;49.990;7.370;2022-08-11T17:52:33;8.98;;;2.58;;
22378;SDS011;11357;49.990;7.370;2022-08-11T17:55:18;4.72;;;2.47;;
22378;SDS011;11357;49.990;7.370;2022-08-11T17:58:04;2.72;;;2.20;;
22378;SDS011;11357;49.990;7.370;2022-08-11T18:00:49;2.65;;;2.45;;
22378;SDS011;11357;49.990;7.370;2022-08-11T18:03:18;2.38;;;1.98;;
22378;SDS011;11357;49.990;7.370;2022-08-11T18:05:58;4.50;;;2.38;;
22378;SDS011;11357;49.990;7.370;2022-08-11T18:08:27;5.40;;;2.40;;
22378;SDS011;11357;49.990;7.370;2022-08-11T18:11:15;2.33;;;2.00;;
22378;SDS011;11357;49.990;7.370;2022-08-11T18:14:04;5.35;;;2.13;;
22378;SDS011;11357;49.990;7.370;2022-08-11T18:16:50;3.90;;;2.50;;
22378;SDS011;11357;49.990;7.370;2022-08-11T18:19:35;3.65;;;2.20;;
22378;SDS011;11357;49.990;7.370;2022-08-11T18:22:21;11.85;;;2.38;;
22378;SDS011;11357;49.990;7.370;2022-08-11T18:25:08;4.30;;;2.47;;
22378;SDS011;11357;49.990;7.370;2022-08-11T18:27:55;5.93;;;2.20;;
22378;SDS011;11357;49.990;7.370;2022-08-11T18:30:42;3.00;;;2.20;;
22378;SDS011;11357;49.990;7.370;2022-08-11T18:33:32;6.30;;;2.38;;
22378;SDS011;11357;49.990;7.370;2022-08-11T18:36:26;8.00;;;2.45;;
22378;SDS011;11357;49.990;7.370;2022-08-11T18:39:14;4.40;;;2.40;;
22378;SDS011;11357;49.990;7.370;2022-08-11T18:42:05;7.65;;;2.50;;
22378;SDS011;11357;49.990;7.370;2022-08-11T18:44:54;4.40;;;2.33;;
22378;SDS011;11357;49.990;7.370;2022-08-11T18:47:49;3.45;;;2.17;;
22378;SDS011;11357;49.990;7.370;2022-08-11T18:50:37;4.78;;;2.50;;
22378;SDS011;11357;49.990;7.370;2022-08-11T18:53:23;4.57;;;2.50;;
22378;SDS011;11357;49.990;7.370;2022-08-11T18:56:10;6.90;;;2.60;;
22378;SDS011;11357;49.990;7.370;2022-08-11T18:58:55;3.05;;;2.72;;
22378;SDS011;11357;49.990;7.370;2022-08-11T19:01:42;5.72;;;2.70;;
22378;SDS011;11357;49.990;7.370;2022-08-11T19:04:26;4.80;;;2.30;;
22378;SDS011;11357;49.990;7.370;2022-08-11T19:07:12;3.65;;;2.65;;
22378;SDS011;11357;49.990;7.370;2022-08-11T19:09:59;6.95;;;2.80;;
22378;SDS011;11357;49.990;7.370;2022-08-11T19:12:47;10.80;;;2.60;;
22378;SDS011;11357;49.990;7.370;2022-08-11T19:15:33;5.45;;;2.78;;
22378;SDS011;11357;49.990;7.370;2022-08-11T19:18:21;4.40;;;2.95;;
22378;SDS011;11357;49.990;7.370;2022-08-11T19:21:07;2.58;;;2.35;;
22378;SDS011;11357;49.990;7.370;2022-08-11T19:23:53;6.63;;;3.20;;
22378;SDS011;11357;49.990;7.370;2022-08-11T19:26:41;9.25;;;2.58;;
22378;SDS011;11357;49.990;7.370;2022-08-11T19:29:27;6.38;;;3.05;;
22378;SDS011;11357;49.990;7.370;2022-08-11T19:32:13;7.10;;;5.70;;
22378;SDS011;11357;49.990;7.370;2022-08-11T19:34:59;9.98;;;9.13;;
22378;SDS011;11357;49.990;7.370;2022-08-11T19:37:45;10.00;;;9.15;;
22378;SDS011;11357;49.990;7.370;2022-08-11T19:40:32;16.48;;;15.60;;
22378;SDS011;11357;49.990;7.370;2022-08-11T19:43:18;25.92;;;24.50;;
22378;SDS011;11357;49.990;7.370;2022-08-11T19:46:04;36.05;;;34.00;;
22378;SDS011;11357;49.990;7.370;2022-08-11T19:48:50;39.63;;;37.53;;
22378;SDS011;11357;49.990;7.370;2022-08-11T19:51:37;102.32;;;96.45;;
22378;SDS011;11357;49.990;7.370;2022-08-11T19:54:25;293.95;;;274.55;;
22378;SDS011;11357;49.990;7.370;2022-08-11T19:57:12;390.00;;;362.65;;
22378;SDS011;11357;49.990;7.370;2022-08-11T19:59:58;485.88;;;451.45;;
22378;SDS011;11357;49.990;7.370;2022-08-11T20:02:43;574.67;;;529.05;;
22378;SDS011;11357;49.990;7.370;2022-08-11T20:05:28;578.78;;;533.78;;
22378;SDS011;11357;49.990;7.370;2022-08-11T20:08:14;552.97;;;509.70;;
22378;SDS011;11357;49.990;7.370;2022-08-11T20:11:01;1113.38;;;718.95;;
22378;SDS011;11357;49.990;7.370;2022-08-11T20:13:47;1123.18;;;743.58;;